Time;durP1;ratioP1;P1;durP2;ratioP2;P2;SDS_P1;SDS_P2;PMS_P1;PMS_P2;Temp;Humidity;BMP_temperature;BMP_pressure;BME280_temperature;BME280_humidity;BME280_pressure;Samples;Min_cycle;Max_cycle;Signal;HPM_P1;HPM_P2
2022/10/03 00:02:12;;;;;;;5.10;2.17;;;;;;;10.32;75.34;98366.19;5078085;28;20024;-78
2022/10/03 00:05:01;;;;;;;5.00;2.50;;;;;;;10.33;74.91;98369.72;5077691;28;20954;-78
2022/10/03 00:07:42;;;;;;;6.45;2.50;;;;;;;10.33;75.05;98369.72;5047588;28;20036;-78
2022/10/03 00:10:45;;;;;;;4.35;2.28;;;;;;;10.30;75.16;98362.91;5077042;28;20027;-78
2022/10/03 00:13:24;;;;;;;7.47;2.42;;;;;;;10.31;74.83;98361.81;5080067;28;20175;-77
2022/10/03 00:15:52;;;;;;;5.43;2.40;;;;;;;10.29;74.74;98361.28;5081580;28;20506;-78
2022/10/03 00:18:35;;;;;;;3.72;2.40;;;;;;;10.27;74.88;98360.75;5083304;28;20270;-78
2022/10/03 00:21:13;;;;;;;5.22;2.28;;;;;;;10.30;74.47;98362.09;5077211;28;20034;-78
2022/10/03 00:23:41;;;;;;;5.47;2.50;;;;;;;10.31;75.06;98355.50;5081257;28;20723;-80
2022/10/03 00:26:47;;;;;;;4.47;2.05;;;;;;;10.31;74.77;98350.84;5082411;28;20032;-78
2022/10/03 00:29:41;;;;;;;3.03;1.88;;;;;;;10.32;75.46;98359.84;5040224;28;20166;-79
2022/10/03 00:32:21;;;;;;;6.05;2.20;;;;;;;10.36;75.79;98361.72;5080902;28;20040;-78
2022/10/03 00:35:03;;;;;;;3.97;2.08;;;;;;;10.36;75.15;98349.94;5064632;28;20037;-78
2022/10/03 00:37:43;;;;;;;4.40;1.80;;;;;;;10.37;75.64;98355.13;5065272;28;20024;-78
2022/10/03 00:40:15;;;;;;;5.75;2.13;;;;;;;10.37;76.02;98357.03;5080003;28;20035;-78
2022/10/03 00:43:02;;;;;;;5.95;1.88;;;;;;;10.39;75.42;98363.88;5082846;28;20547;-78
2022/10/03 00:45:46;;;;;;;3.15;1.70;;;;;;;10.41;75.59;98356.16;5077657;28;20119;-78
2022/10/03 00:48:14;;;;;;;3.63;1.77;;;;;;;10.43;75.54;98347.66;5082023;28;20032;-78
2022/10/03 00:51:03;;;;;;;5.30;2.20;;;;;;;10.43;75.39;98353.94;5061740;28;20032;-78
2022/10/03 00:53:58;;;;;;;5.20;1.80;;;;;;;10.43;76.10;98355.91;5061101;28;20089;-78
2022/10/03 00:56:56;;;;;;;4.03;1.90;;;;;;;10.45;75.32;98341.88;5065060;28;20031;-78
2022/10/03 01:00:00;;;;;;;4.93;1.80;;;;;;;10.43;75.05;98336.69;5062785;28;20035;-78
2022/10/03 01:02:38;;;;;;;4.85;1.70;;;;;;;10.46;76.03;98338.00;5082903;28;20111;-78
2022/10/03 01:05:12;;;;;;;4.13;2.00;;;;;;;10.46;76.20;98338.00;5081664;28;20031;-79
2022/10/03 01:08:05;;;;;;;4.47;1.88;;;;;;;10.44;75.99;98349.28;5080857;28;20039;-78
2022/10/03 01:10:41;;;;;;;7.55;2.05;;;;;;;10.42;75.71;98343.28;5083407;28;20032;-78
2022/10/03 01:13:31;;;;;;;6.13;2.05;;;;;;;10.40;75.76;98338.09;5083912;28;20028;-78
2022/10/03 01:16:05;;;;;;;6.93;1.80;;;;;;;10.40;75.68;98340.84;5080747;28;20111;-78
2022/10/03 01:18:56;;;;;;;3.70;1.80;;;;;;;10.39;76.46;98330.19;5083855;28;20373;-79
2022/10/03 01:21:35;;;;;;;6.15;2.00;;;;;;;10.40;75.39;98340.03;5082462;28;20054;-80
2022/10/03 01:24:27;;;;;;;4.80;1.80;;;;;;;10.35;75.73;98338.16;5082674;28;20392;-78
2022/10/03 01:27:00;;;;;;;6.18;2.33;;;;;;;10.35;75.19;98335.44;5033833;28;21173;-79
2022/10/03 01:32:34;;;;;;;7.88;2.10;;;;;;;10.33;75.86;98337.66;5086373;28;20529;-79
2022/10/03 01:35:26;;;;;;;4.93;2.17;;;;;;;10.35;75.91;98338.16;5086132;28;20034;-79
2022/10/03 01:38:03;;;;;;;3.92;2.03;;;;;;;10.35;76.43;98329.13;5085907;28;20166;-80
2022/10/03 01:40:33;;;;;;;4.20;1.67;;;;;;;10.35;76.12;98343.66;5083780;28;20020;-79
2022/10/03 01:43:14;;;;;;;;;;;;;;;10.36;75.93;98341.72;5082147;28;20077;-79
2022/10/03 01:45:48;;;;;;;7.53;1.58;;;;;;;10.37;76.75;98344.16;5083980;28;20346;-79
2022/10/03 01:48:17;;;;;;;4.45;2.10;;;;;;;10.39;76.73;98344.69;5085667;28;20040;-79
2022/10/03 01:51:20;;;;;;;5.35;1.60;;;;;;;10.42;76.27;98343.28;5064806;28;20492;-79
2022/10/03 01:53:57;;;;;;;6.90;1.60;;;;;;;10.45;76.68;98345.44;5081857;28;20051;-79
2022/10/03 01:56:39;;;;;;;6.82;1.50;;;;;;;10.46;76.40;98336.09;5085832;28;20042;-79
2022/10/03 01:59:17;;;;;;;5.95;1.52;;;;;;;10.50;76.82;98339.06;5084552;28;20039;-78
2022/10/03 02:01:42;;;;;;;5.65;1.60;;;;;;;10.53;76.78;98344.78;5084926;28;20032;-79
2022/10/03 02:04:30;;;;;;;6.18;1.60;;;;;;;10.57;76.94;98342.22;5085212;28;20031;-79
2022/10/03 02:07:04;;;;;;;4.45;1.33;;;;;;;10.61;76.08;98346.00;5084554;28;20057;-80
2022/10/03 02:09:55;;;;;;;3.90;1.30;;;;;;;10.63;76.39;98337.47;5077215;28;20444;-75
2022/10/03 02:12:21;;;;;;;4.95;1.35;;;;;;;10.66;75.81;98345.09;5080948;28;20040;-77
2022/10/03 02:15:16;;;;;;;4.18;1.35;;;;;;;10.67;76.16;98341.25;5063804;28;20047;-76
2022/10/03 02:18:14;;;;;;;4.20;1.42;;;;;;;10.67;76.20;98350.31;5083353;28;20039;-75
2022/10/03 02:21:19;;;;;;;6.00;1.83;;;;;;;10.68;76.25;98343.69;5056432;28;20036;-77
2022/10/03 02:23:47;;;;;;;7.93;1.65;;;;;;;10.72;76.10;98338.41;5033568;28;20075;-79
2022/10/03 02:26:34;;;;;;;5.20;1.60;;;;;;;10.71;76.93;98345.84;5083950;28;20507;-78
2022/10/03 02:29:21;;;;;;;6.15;1.95;;;;;;;10.72;76.62;98341.16;5084298;28;20602;-78
2022/10/03 02:32:09;;;;;;;4.97;1.52;;;;;;;10.78;77.07;98344.66;5084676;28;20028;-78
2022/10/03 02:35:13;;;;;;;4.90;1.55;;;;;;;10.81;76.39;98347.59;5079013;28;20085;-78
2022/10/03 02:38:04;;;;;;;6.18;1.80;;;;;;;10.86;75.81;98344.78;4991116;28;20157;-78
2022/10/03 02:40:55;;;;;;;7.00;2.00;;;;;;;10.84;76.04;98346.16;5079153;28;20048;-77
2022/10/03 02:43:53;;;;;;;5.68;1.60;;;;;;;10.84;76.59;98344.25;5083678;28;20452;-77
2022/10/03 02:46:45;;;;;;;4.82;1.83;;;;;;;10.84;76.32;98347.00;5084177;28;20772;-78
2022/10/03 02:49:28;;;;;;;7.07;1.92;;;;;;;10.82;76.47;98351.97;5081922;28;20039;-78
2022/10/03 02:52:50;;;;;;;6.28;1.65;;;;;;;10.79;76.33;98346.28;5083899;28;20032;-78
2022/10/03 02:55:31;;;;;;;4.05;1.38;;;;;;;10.83;76.78;98359.09;4980972;28;20121;-78
2022/10/03 02:58:14;;;;;;;4.85;1.70;;;;;;;10.84;76.33;98359.88;4980653;28;20117;-78
2022/10/03 03:00:45;;;;;;;7.65;1.38;;;;;;;10.85;76.30;98362.34;5061184;28;20050;-78
2022/10/03 03:03:29;;;;;;;5.97;1.70;;;;;;;10.87;76.32;98362.03;5081623;28;20059;-78
2022/10/03 03:06:28;;;;;;;5.57;1.75;;;;;;;10.87;76.65;98367.53;5082565;28;20036;-78
2022/10/03 03:09:17;;;;;;;8.30;1.70;;;;;;;10.88;76.19;98358.19;5083039;28;20032;-78
2022/10/03 03:11:58;;;;;;;3.65;1.30;;;;;;;10.90;76.75;98350.47;5083276;28;20032;-78
2022/10/03 03:14:51;;;;;;;4.97;1.40;;;;;;;10.88;76.13;98360.91;5084329;28;20048;-77
2022/10/03 03:17:53;;;;;;;5.50;1.55;;;;;;;10.87;76.33;98370.25;5084086;28;20044;-77
2022/10/03 03:20:19;;;;;;;4.35;1.23;;;;;;;10.87;76.25;98368.34;5082144;28;20028;-77
2022/10/03 03:23:15;;;;;;;5.53;1.60;;;;;;;10.80;76.35;98356.16;5083361;28;20028;-77
2022/10/03 03:26:26;;;;;;;5.60;1.70;;;;;;;10.79;76.64;98360.81;5082557;28;20044;-78
2022/10/03 03:29:03;;;;;;;4.63;1.80;;;;;;;10.79;76.62;98370.97;5083945;28;20119;-78
2022/10/03 03:31:53;;;;;;;5.10;1.70;;;;;;;10.79;76.73;98370.97;5081901;28;20153;-78
2022/10/03 03:34:18;;;;;;;;;;;;;;;10.79;77.33;98369.03;5064773;28;20139;-78
2022/10/03 03:37:09;;;;;;;5.32;1.25;;;;;;;10.77;76.91;98378.69;5083464;28;20348;-78
2022/10/03 03:39:38;;;;;;;6.72;1.50;;;;;;;10.76;76.46;98371.56;5078886;28;20040;-79
2022/10/03 03:42:15;;;;;;;6.28;1.83;;;;;;;10.74;76.58;98374.59;5083358;28;20066;-78
2022/10/03 03:45:02;;;;;;;5.75;1.70;;;;;;;10.75;77.15;98383.66;5082755;28;20142;-78
2022/10/03 03:47:46;;;;;;;4.47;1.50;;;;;;;10.71;76.82;98381.50;5081657;28;20082;-78
2022/10/03 03:50:44;;;;;;;7.53;1.65;;;;;;;10.70;77.06;98374.38;5080496;28;20544;-79
2022/10/03 03:53:16;;;;;;;4.80;1.50;;;;;;;10.71;76.74;98375.19;5081087;28;20107;-77
2022/10/03 03:55:52;;;;;;;6.80;1.60;;;;;;;10.65;77.22;98385.44;5082067;28;20677;-77
2022/10/03 03:58:53;;;;;;;5.68;1.52;;;;;;;10.59;76.87;98372.91;5082948;28;20757;-76
2022/10/03 04:01:36;;;;;;;5.97;1.80;;;;;;;10.59;76.78;98372.13;5080830;28;20111;-76
2022/10/03 04:04:26;;;;;;;6.32;1.50;;;;;;;10.60;77.46;98380.03;5079221;28;20031;-77
2022/10/03 04:06:55;;;;;;;;;;;;;;;10.59;76.93;98372.91;5083789;28;20038;-77
2022/10/03 04:10:01;;;;;;;4.30;1.42;;;;;;;10.57;76.67;98377.88;5081250;28;19993;-77
2022/10/03 04:12:29;;;;;;;5.72;1.30;;;;;;;10.54;76.46;98370.25;5008978;28;20065;-77
2022/10/03 04:14:54;;;;;;;7.38;1.73;;;;;;;10.53;76.85;98374.09;5032300;28;20037;-77
2022/10/03 04:20:47;;;;;;;4.65;1.70;;;;;;;10.51;77.28;98373.59;5029168;28;20047;-77
2022/10/03 04:23:49;;;;;;;7.80;1.60;;;;;;;10.51;77.17;98377.16;5032764;28;20037;-77
2022/10/03 04:26:47;;;;;;;4.78;1.90;;;;;;;10.52;78.08;98373.31;5026869;28;20041;-76
2022/10/03 04:29:21;;;;;;;6.05;1.85;;;;;;;10.52;77.52;98381.53;5010843;28;20096;-77
2022/10/03 04:31:49;;;;;;;4.50;1.42;;;;;;;10.48;76.96;98387.88;5032600;28;20067;-77
2022/10/03 04:34:45;;;;;;;2.65;1.30;;;;;;;10.44;77.58;98382.19;5026048;28;20431;-77
2022/10/03 04:37:24;;;;;;;3.67;1.40;;;;;;;10.40;77.31;98392.94;5012741;28;20049;-76
2022/10/03 04:40:09;;;;;;;5.82;1.40;;;;;;;10.37;77.85;98384.47;5030197;28;20524;-76
2022/10/03 04:42:58;;;;;;;4.95;1.50;;;;;;;10.36;77.15;98389.16;5040901;28;20040;-76
2022/10/03 04:46:02;;;;;;;6.20;1.67;;;;;;;10.36;77.40;98396.53;5085898;28;20416;-76
2022/10/03 04:48:39;;;;;;;4.88;1.52;;;;;;;10.34;77.45;98388.63;5044802;28;20437;-76
2022/10/03 04:51:14;;;;;;;6.75;1.60;;;;;;;10.33;77.95;98387.00;5066053;28;20593;-76
2022/10/03 04:53:59;;;;;;;6.05;1.65;;;;;;;10.36;77.40;98396.53;5086063;28;20082;-76
2022/10/03 04:56:57;;;;;;;4.35;1.45;;;;;;;10.36;77.48;98396.53;5086138;28;20518;-75
2022/10/03 04:59:28;;;;;;;4.70;1.33;;;;;;;10.37;77.24;98403.66;5080164;28;20087;-76
2022/10/03 05:02:32;;;;;;;5.97;1.90;;;;;;;10.35;77.04;98393.00;5086520;28;20032;-76
2022/10/03 05:05:16;;;;;;;5.65;1.77;;;;;;;10.34;77.05;98407.81;5050606;28;20061;-76
2022/10/03 05:07:44;;;;;;;6.30;1.73;;;;;;;10.34;77.58;98406.97;5067588;28;20050;-76
2022/10/03 05:10:34;;;;;;;6.90;1.60;;;;;;;10.29;77.45;98402.41;5084135;28;20043;-76
2022/10/03 05:13:29;;;;;;;4.90;1.50;;;;;;;10.25;76.87;98406.84;5083195;28;20087;-76
2022/10/03 05:16:06;;;;;;;4.70;1.27;;;;;;;10.26;77.00;98413.94;5086016;28;20039;-77
2022/10/03 05:18:45;;;;;;;4.18;1.15;;;;;;;10.30;77.51;98414.16;5067569;28;20016;-76
2022/10/03 05:21:40;;;;;;;6.73;1.40;;;;;;;10.31;77.54;98419.38;5083245;28;20028;-77
2022/10/03 05:24:08;;;;;;;4.70;1.50;;;;;;;10.36;77.56;98422.03;5086269;28;20270;-77
2022/10/03 05:27:00;;;;;;;5.88;1.60;;;;;;;10.35;76.71;98422.31;5067530;28;20024;-77
2022/10/03 05:30:03;;;;;;;5.13;1.90;;;;;;;10.34;76.64;98421.53;5084199;28;20032;-77
2022/10/03 05:32:47;;;;;;;6.28;2.10;;;;;;;10.34;77.72;98416.03;5086729;28;20121;-77
2022/10/03 05:35:45;;;;;;;6.90;1.70;;;;;;;10.33;76.62;98408.09;5085748;28;20559;-77
2022/10/03 05:38:29;;;;;;;5.22;1.33;;;;;;;10.31;77.73;98407.56;5085024;28;20077;-77
2022/10/03 05:41:03;;;;;;;5.28;1.50;;;;;;;10.33;76.96;98400.69;5084074;28;20093;-77
2022/10/03 05:43:46;;;;;;;5.20;1.80;;;;;;;10.36;76.62;98402.84;5086429;28;20480;-76
2022/10/03 05:46:32;;;;;;;10.48;2.30;;;;;;;10.37;77.16;98398.16;5085396;28;20052;-77
2022/10/03 05:49:10;;;;;;;6.50;1.70;;;;;;;10.38;76.61;98402.53;5085727;28;20056;-77
2022/10/03 05:51:55;;;;;;;4.65;2.00;;;;;;;10.39;77.08;98391.28;5084740;28;20042;-77
2022/10/03 05:54:38;;;;;;;5.40;1.40;;;;;;;10.42;77.13;98396.19;5085611;28;20036;-77
2022/10/03 05:57:31;;;;;;;5.32;1.60;;;;;;;10.39;76.82;98410.47;5085148;28;20063;-77
2022/10/03 05:59:59;;;;;;;5.65;1.65;;;;;;;10.40;77.55;98408.56;5083636;28;20042;-77
2022/10/03 06:02:31;;;;;;;4.63;1.60;;;;;;;10.39;76.63;98415.16;5085734;28;20028;-76
2022/10/03 06:05:28;;;;;;;6.03;2.08;;;;;;;10.33;77.38;98424.53;5085147;28;20020;-76
2022/10/03 06:08:00;;;;;;;7.63;2.00;;;;;;;10.34;77.27;98426.16;5067171;28;20040;-76
2022/10/03 06:10:37;;;;;;;5.15;1.55;;;;;;;10.33;76.76;98430.03;5065684;28;20031;-77
2022/10/03 06:13:11;;;;;;;15.40;6.85;;;;;;;10.31;77.28;98424.03;5085592;28;20027;-76
2022/10/03 06:15:42;;;;;;;6.80;2.45;;;;;;;10.31;77.07;98441.28;5085533;28;20082;-77
2022/10/03 06:18:17;;;;;;;5.15;1.65;;;;;;;10.32;77.35;98425.66;5085373;28;20486;-77
2022/10/03 06:20:42;;;;;;;4.63;2.38;;;;;;;10.32;77.19;98433.88;5082970;28;20032;-75
2022/10/03 06:23:38;;;;;;;9.23;3.10;;;;;;;10.30;77.45;98431.44;5085233;28;20081;-76
2022/10/03 06:26:03;;;;;;;5.47;2.30;;;;;;;10.32;77.59;98434.72;5081204;28;20100;-76
2022/10/03 06:29:13;;;;;;;4.32;1.67;;;;;;;10.30;77.69;98442.41;5085942;28;20469;-76
2022/10/03 06:32:16;;;;;;;6.68;1.52;;;;;;;10.31;77.60;98443.22;5084513;28;20024;-77
2022/10/03 06:35:08;;;;;;;4.22;2.03;;;;;;;10.32;77.35;98461.28;5084154;28;20028;-77
2022/10/03 06:38:05;;;;;;;10.38;3.35;;;;;;;10.31;76.92;98457.75;5081541;28;20032;-76
2022/10/03 06:40:47;;;;;;;4.18;1.70;;;;;;;10.34;77.37;98457.16;5061300;28;20495;-76
2022/10/03 06:43:28;;;;;;;4.28;1.50;;;;;;;10.37;76.78;98453.81;5084487;28;20606;-76
2022/10/03 06:46:12;;;;;;;9.45;2.55;;;;;;;10.42;77.19;98439.25;5084879;28;20121;-77
2022/10/03 06:48:57;;;;;;;10.40;2.60;;;;;;;10.47;76.88;98444.66;5084024;28;20028;-76
2022/10/03 06:51:36;;;;;;;10.02;3.85;;;;;;;10.50;76.91;98451.47;5083575;28;20144;-76
2022/10/03 06:54:16;;;;;;;122.35;38.58;;;;;;;10.53;77.29;98445.41;5084297;28;20016;-76
2022/10/03 06:57:09;;;;;;;9.80;3.20;;;;;;;10.50;77.19;98446.00;5084606;28;20040;-76
2022/10/03 07:00:00;;;;;;;6.53;2.92;;;;;;;10.52;77.03;98449.25;5082725;28;20115;-76
2022/10/03 07:03:10;;;;;;;6.78;2.10;;;;;;;10.53;77.34;98445.41;5084451;28;20120;-77
2022/10/03 07:06:02;;;;;;;6.63;1.98;;;;;;;10.62;77.33;98440.06;5052400;28;20043;-76
2022/10/03 07:08:59;;;;;;;7.72;2.15;;;;;;;10.71;76.76;98441.84;5065757;28;20032;-77
2022/10/03 07:11:38;;;;;;;5.80;1.85;;;;;;;10.81;77.23;98434.56;5083124;28;20043;-76
2022/10/03 07:14:23;;;;;;;6.95;1.50;;;;;;;10.88;77.07;98437.75;5084086;28;20039;-76
2022/10/03 07:16:59;;;;;;;3.65;2.05;;;;;;;10.89;76.99;98446.81;5085976;28;20392;-77
2022/10/03 07:19:41;;;;;;;7.80;1.77;;;;;;;10.87;76.50;98449.81;5083718;28;20771;-76
2022/10/03 07:22:38;;;;;;;13.57;4.80;;;;;;;10.84;76.90;98444.94;5065379;28;20426;-77
2022/10/03 07:25:38;;;;;;;23.23;8.73;;;;;;;10.80;76.67;98441.19;5085610;28;20060;-77
2022/10/03 07:28:13;;;;;;;7.35;3.20;;;;;;;10.74;76.98;98456.09;5082474;28;20111;-77
2022/10/03 07:31:20;;;;;;;6.05;2.17;;;;;;;10.67;76.35;98454.53;5074732;28;20032;-76
2022/10/03 07:33:58;;;;;;;4.18;1.92;;;;;;;10.66;77.66;98466.63;5014902;28;20582;-75
2022/10/03 07:39:53;;;;;;;5.00;1.90;;;;;;;10.70;77.63;98466.81;5076060;28;20055;-77
2022/10/03 07:42:40;;;;;;;13.40;5.05;;;;;;;10.72;77.28;98470.09;5081577;28;20772;-77
2022/10/03 07:45:23;;;;;;;5.10;2.40;;;;;;;10.75;77.66;98461.25;5067990;28;20043;-78
2022/10/03 07:48:01;;;;;;;5.07;1.73;;;;;;;10.74;77.08;98464.31;5062487;28;21341;-76
2022/10/03 07:50:41;;;;;;;4.53;1.63;;;;;;;10.74;77.26;98469.81;5060180;28;20078;-76
2022/10/03 07:53:51;;;;;;;5.93;1.90;;;;;;;10.75;77.30;98463.22;5078910;28;20028;-76
2022/10/03 07:56:41;;;;;;;5.60;1.73;;;;;;;10.79;77.28;98470.53;5058995;28;20054;-78
2022/10/03 07:59:19;;;;;;;4.70;1.90;;;;;;;10.86;77.56;98472.88;5076764;28;20033;-77
2022/10/03 08:02:04;;;;;;;6.32;1.90;;;;;;;10.93;77.64;98470.59;5078116;28;20032;-78
2022/10/03 08:04:53;;;;;;;3.33;1.50;;;;;;;11.04;77.57;98468.50;5076570;28;20024;-77
2022/10/03 08:08:02;;;;;;;5.65;1.50;;;;;;;11.10;77.75;98474.72;5076758;28;20146;-77
2022/10/03 08:11:06;;;;;;;4.15;1.55;;;;;;;11.20;77.52;98468.25;5016124;28;20072;-79
2022/10/03 08:13:57;;;;;;;4.07;1.65;;;;;;;11.21;77.53;98478.13;5056812;28;20040;-75
2022/10/03 08:17:00;;;;;;;4.43;1.67;;;;;;;11.14;77.75;98470.28;5077799;28;20036;-75
2022/10/03 08:19:40;;;;;;;5.55;1.50;;;;;;;11.13;77.21;98465.91;5083541;28;20032;-79
2022/10/03 08:22:24;;;;;;;2.17;1.17;;;;;;;11.08;77.46;98458.56;5062648;28;20575;-77
2022/10/03 08:25:28;;;;;;;2.67;1.27;;;;;;;11.00;77.57;98471.03;5082777;28;20769;-79
2022/10/03 08:28:16;;;;;;;1.80;1.27;;;;;;;10.90;77.44;98470.38;5082018;28;20036;-77
2022/10/03 08:30:44;;;;;;;3.58;1.88;;;;;;;10.82;77.58;98471.84;5081169;28;20027;-80
2022/10/03 08:33:26;;;;;;;5.28;3.65;;;;;;;10.77;77.67;98472.75;5078259;28;20086;-79
2022/10/03 08:36:10;;;;;;;4.57;2.20;;;;;;;10.72;78.45;98462.69;5087817;28;20081;-78
2022/10/03 08:38:41;;;;;;;3.97;1.63;;;;;;;10.76;78.10;98467.59;5084157;28;20028;-78
2022/10/03 08:41:44;;;;;;;2.47;1.40;;;;;;;10.81;77.94;98471.06;5084616;28;20024;-78
2022/10/03 08:44:37;;;;;;;3.20;1.63;;;;;;;10.90;77.98;98467.63;5086958;28;20501;-78
2022/10/03 08:47:27;;;;;;;4.13;1.20;;;;;;;10.92;78.64;98463.47;5064895;28;20097;-80
2022/10/03 08:50:14;;;;;;;3.25;1.55;;;;;;;10.89;78.48;98464.06;5085096;28;20054;-81
2022/10/03 08:52:51;;;;;;;2.97;1.08;;;;;;;10.83;79.33;98466.09;5072163;28;20073;-81
2022/10/03 08:55:31;;;;;;;2.53;1.08;;;;;;;10.79;77.99;98469.72;5082722;28;20113;-82
2022/10/03 08:58:16;;;;;;;7.68;3.10;;;;;;;10.80;78.52;98472.16;5084773;28;20488;-83
2022/10/03 09:00:53;;;;;;;3.42;2.10;;;;;;;10.81;79.54;98470.22;5083818;28;20051;-83
2022/10/03 09:03:47;;;;;;;1.77;1.17;;;;;;;10.83;79.20;98478.97;5085386;28;20032;-82
2022/10/03 09:06:41;;;;;;;3.42;1.70;;;;;;;10.92;79.21;98479.94;5067396;28;20659;-83
2022/10/03 09:09:17;;;;;;;2.95;1.10;;;;;;;10.98;78.80;98484.22;5080596;28;20040;-82
2022/10/03 09:11:53;;;;;;;2.80;1.45;;;;;;;11.02;78.92;98478.94;5085041;28;20066;-82
2022/10/03 09:14:21;;;;;;;3.38;1.70;;;;;;;11.03;79.14;98469.59;5085996;28;20032;-82
2022/10/03 09:17:28;;;;;;;2.45;1.23;;;;;;;11.05;79.09;98472.06;5066440;28;20063;-82
2022/10/03 09:20:31;;;;;;;2.42;1.10;;;;;;;11.04;79.51;98484.97;5020692;28;20764;-82
2022/10/03 09:23:18;;;;;;;3.20;1.42;;;;;;;11.02;79.11;98476.22;5022637;28;20048;-82
2022/10/03 09:25:59;;;;;;;4.38;1.48;;;;;;;11.02;79.28;98479.78;5013414;28;20040;-79
2022/10/03 09:28:27;;;;;;;2.22;1.15;;;;;;;11.02;79.27;98482.53;5055656;28;20408;-80
2022/10/03 09:31:19;;;;;;;2.60;1.23;;;;;;;10.97;79.08;98465.34;5077585;28;20028;-74
2022/10/03 09:33:55;;;;;;;8.80;3.78;;;;;;;10.91;78.88;98488.47;5082142;28;20036;-81
2022/10/03 09:36:38;;;;;;;5.57;2.67;;;;;;;10.90;78.89;98481.34;5084205;28;20032;-81
2022/10/03 09:39:17;;;;;;;2.88;1.45;;;;;;;10.89;79.18;98485.22;5072281;28;20048;-79
2022/10/03 09:41:51;;;;;;;6.40;3.53;;;;;;;10.91;79.29;98508.47;5081982;28;20444;-82
2022/10/03 09:44:16;;;;;;;3.60;1.98;;;;;;;10.93;79.14;98489.00;5083987;28;20047;-79
2022/10/03 09:47:22;;;;;;;4.10;1.20;;;;;;;10.93;79.60;98499.97;5082687;28;20044;-79
2022/10/03 09:50:26;;;;;;;2.53;1.33;;;;;;;10.99;79.28;98480.38;5082445;28;20169;-79
2022/10/03 09:53:29;;;;;;;3.58;1.55;;;;;;;11.05;79.21;98483.84;5067034;28;20040;-77
2022/10/03 09:56:22;;;;;;;5.82;2.60;;;;;;;11.19;79.89;98472.13;5083920;28;20046;-78
2022/10/03 09:59:12;;;;;;;6.93;3.47;;;;;;;11.26;79.21;98478.84;5083856;28;20513;-76
2022/10/03 10:01:56;;;;;;;2.35;1.40;;;;;;;11.28;79.08;98492.28;5083075;28;20028;-78
2022/10/03 10:04:53;;;;;;;2.28;0.93;;;;;;;11.23;78.90;98487.69;5084973;28;20035;-80
2022/10/03 10:07:37;;;;;;;3.50;1.30;;;;;;;11.22;79.25;98490.72;5065869;28;20096;-79
2022/10/03 10:10:08;;;;;;;2.72;1.02;;;;;;;11.24;79.50;98504.97;5064475;28;20040;-79
2022/10/03 10:12:58;;;;;;;7.03;3.58;;;;;;;11.19;79.45;98486.66;5065211;28;20024;-79
2022/10/03 10:15:58;;;;;;;2.92;1.40;;;;;;;11.13;78.99;98496.09;5083557;28;20829;-79
2022/10/03 10:18:32;;;;;;;5.25;2.40;;;;;;;11.05;79.25;98494.81;5084657;28;20758;-80
2022/10/03 10:21:28;;;;;;;2.17;1.10;;;;;;;10.97;79.29;98499.06;5084620;28;20478;-80
2022/10/03 10:23:59;;;;;;;3.35;2.08;;;;;;;10.93;79.29;98492.53;5085972;28;20495;-80
2022/10/03 10:26:47;;;;;;;1.63;0.90;;;;;;;10.92;79.39;98488.16;5084558;28;20039;-80
2022/10/03 10:29:18;;;;;;;3.25;1.17;;;;;;;10.96;79.93;98491.94;5076210;28;20060;-78
2022/10/03 10:32:20;;;;;;;1.30;0.82;;;;;;;11.04;80.33;98492.38;5081202;28;20033;-80
2022/10/03 10:35:04;;;;;;;1.42;1.00;;;;;;;11.12;80.18;98486.22;5084280;28;21123;-80
2022/10/03 10:37:56;;;;;;;2.38;1.00;;;;;;;11.21;79.96;98494.59;5066712;28;20090;-80
2022/10/03 10:40:39;;;;;;;1.70;0.90;;;;;;;11.26;80.22;98492.56;5053017;28;20245;-79
2022/10/03 10:43:17;;;;;;;4.22;2.00;;;;;;;11.30;79.46;98479.06;5082758;28;20488;-79
2022/10/03 10:46:03;;;;;;;2.55;1.35;;;;;;;11.32;79.49;98490.56;5064070;28;20056;-82
2022/10/03 10:49:02;;;;;;;2.65;1.30;;;;;;;11.28;79.73;98493.09;5085266;28;20032;-79
2022/10/03 10:52:02;;;;;;;4.43;1.70;;;;;;;11.24;79.86;98488.50;5082888;28;20088;-78
2022/10/03 10:54:45;;;;;;;6.25;1.98;;;;;;;11.22;79.43;98502.50;5083280;28;20043;-80
2022/10/03 10:57:26;;;;;;;4.13;1.77;;;;;;;11.19;79.12;98494.91;5083434;28;20059;-79
2022/10/03 10:59:57;;;;;;;3.97;2.13;;;;;;;11.22;79.50;98490.72;5081492;28;20040;-78
2022/10/03 11:02:42;;;;;;;2.58;1.60;;;;;;;11.22;79.20;98498.97;5084477;28;20087;-79
2022/10/03 11:05:19;;;;;;;1.75;0.70;;;;;;;11.27;79.22;98496.16;5083652;28;20078;-79
2022/10/03 11:07:54;;;;;;;5.22;2.42;;;;;;;11.31;79.40;98506.22;5083141;28;20050;-79
2022/10/03 11:10:36;;;;;;;1.60;0.80;;;;;;;11.37;79.31;98517.94;5080970;28;20028;-79
2022/10/03 11:13:36;;;;;;;2.20;0.85;;;;;;;11.43;78.68;98513.19;5081954;28;20543;-79
2022/10/03 11:16:34;;;;;;;2.08;0.80;;;;;;;11.46;79.06;98513.38;5081232;28;20036;-79
2022/10/03 11:19:32;;;;;;;4.10;2.30;;;;;;;11.40;79.16;98522.00;5082788;28;20376;-80
2022/10/03 11:22:39;;;;;;;3.70;1.60;;;;;;;11.39;78.70;98514.88;5082225;28;20032;-79
2022/10/03 11:25:42;;;;;;;8.85;3.00;;;;;;;11.36;78.58;98513.56;5081315;28;20518;-80
2022/10/03 11:28:29;;;;;;;4.10;1.58;;;;;;;11.35;78.39;98516.59;5079023;28;20396;-81
2022/10/03 11:31:32;;;;;;;2.47;1.20;;;;;;;11.35;78.57;98520.19;5079880;28;20109;-79
2022/10/03 11:34:16;;;;;;;3.70;1.30;;;;;;;11.32;78.25;98513.34;5082815;28;20325;-79
2022/10/03 11:36:53;;;;;;;2.97;1.30;;;;;;;11.35;78.18;98519.34;5078860;28;20039;-79
2022/10/03 11:39:31;;;;;;;8.95;2.65;;;;;;;11.36;78.32;98510.81;5080427;28;20036;-79
2022/10/03 11:42:09;;;;;;;3.45;1.30;;;;;;;11.38;78.34;98518.75;5081403;28;20472;-79
2022/10/03 11:44:44;;;;;;;6.00;2.08;;;;;;;11.41;78.61;98518.16;5079804;28;20499;-78
2022/10/03 11:47:28;;;;;;;3.50;1.60;;;;;;;11.44;77.91;98520.28;5081583;28;20036;-80
2022/10/03 11:49:53;;;;;;;6.78;1.88;;;;;;;11.44;78.29;98512.06;5080087;28;20028;-81
2022/10/03 11:52:40;;;;;;;8.00;2.78;;;;;;;11.45;78.39;98521.94;5062422;28;20043;-82
2022/10/03 11:55:29;;;;;;;4.72;1.88;;;;;;;11.48;78.34;98510.34;5082702;28;20028;-82
2022/10/03 11:58:26;;;;;;;4.45;1.90;;;;;;;11.47;78.22;98517.75;5082707;28;20039;-81
2022/10/03 12:01:10;;;;;;;5.45;1.73;;;;;;;11.46;77.72;98521.63;5080257;28;20515;-79
2022/10/03 12:03:46;;;;;;;5.80;1.90;;;;;;;11.46;78.59;98520.81;5061999;28;20031;-79
2022/10/03 12:09:20;;;;;;;7.82;2.42;;;;;;;11.44;77.75;98526.59;5079593;28;20043;-79
2022/10/03 12:11:54;;;;;;;9.23;4.55;;;;;;;11.43;78.26;98530.44;5081848;28;20028;-79
2022/10/03 12:14:37;;;;;;;6.85;2.50;;;;;;;11.44;78.20;98534.03;5082731;28;20063;-80
2022/10/03 12:17:17;;;;;;;4.20;1.40;;;;;;;11.46;78.18;98537.28;5080849;28;20467;-79
2022/10/03 12:20:16;;;;;;;7.43;2.08;;;;;;;11.45;77.88;98530.16;5081622;28;20035;-80
2022/10/03 12:22:52;;;;;;;5.32;1.70;;;;;;;11.44;78.28;98531.28;5081289;28;20032;-81
2022/10/03 12:25:20;;;;;;;6.38;2.30;;;;;;;11.40;77.99;98525.59;5081921;28;20032;-79
2022/10/03 12:27:58;;;;;;;4.57;2.20;;;;;;;11.37;78.30;98526.19;5081170;28;20072;-78
2022/10/03 12:30:26;;;;;;;13.23;5.75;;;;;;;11.36;78.42;98523.72;5081311;28;20454;-79
2022/10/03 12:33:05;;;;;;;9.15;4.88;;;;;;;11.34;78.24;98520.47;5062984;28;20024;-78
2022/10/03 12:35:46;;;;;;;6.30;3.63;;;;;;;11.27;78.39;98523.59;5063897;28;20029;-78
2022/10/03 12:38:28;;;;;;;6.50;3.30;;;;;;;11.23;77.87;98534.34;5080118;28;20051;-80
2022/10/03 12:41:03;;;;;;;11.57;4.13;;;;;;;11.21;78.03;98539.31;5080676;28;20503;-79
2022/10/03 12:44:03;;;;;;;5.75;1.60;;;;;;;11.17;78.23;98546.53;5080763;28;20044;-80
2022/10/03 12:47:09;;;;;;;6.10;1.50;;;;;;;11.13;78.64;98542.75;5081044;28;20056;-80
2022/10/03 12:49:59;;;;;;;4.05;1.80;;;;;;;11.16;78.49;98553.16;5064357;28;20111;-78
2022/10/03 12:52:32;;;;;;;5.82;3.13;;;;;;;11.19;78.57;98555.28;5081024;28;20040;-80
2022/10/03 12:54:57;;;;;;;6.57;3.38;;;;;;;11.23;78.80;98558.25;5081348;28;20263;-79
2022/10/03 12:57:42;;;;;;;6.93;2.60;;;;;;;11.23;78.91;98550.00;5062712;28;20044;-79
2022/10/03 13:00:19;;;;;;;4.38;2.10;;;;;;;11.29;78.57;98559.81;5061642;28;20028;-81
2022/10/03 13:03:18;;;;;;;3.25;1.60;;;;;;;11.34;78.71;98553.41;5079242;28;20040;-80
2022/10/03 13:05:55;;;;;;;4.40;1.92;;;;;;;11.39;79.04;98564.31;5078883;28;20029;-80
2022/10/03 13:08:50;;;;;;;2.50;1.35;;;;;;;11.51;79.34;98574.81;5084340;28;20032;-76
2022/10/03 13:11:27;;;;;;;6.85;4.80;;;;;;;11.60;79.51;98556.56;5083850;28;20036;-76